KNFL

Fallon NAS (Van Voorhis Field) Airport

Fallon, Nevada, USA
METAR KNFL 250456Z 30017KT 10SM FEW060 SCT150 SCT250 17/08 A2997 RMK AO2 SLP119 OCNL LGTICCC DSNT NW CB DSNT NW T01720078
Observed Flight Rules
May-25 @ 04:56 UTC (31 minutes ago) Visual Flight Rules
Wind Visibility Clouds
300° at 17 knots 10 miles
  • Few at 6,000' AGL
  • Scattered at 15,000' AGL
  • Scattered at 25,000' AGL
Temperatures Readings
Current 17°C / 63°F
Dewpoint 8°C / 46°F
Humidity 56%
Altimeter 29.97" Hg
Pressure 1011.9 hPa
Elevation 1199
METAR KNFL 250456Z 30017KT 10SM FEW060 SCT150 SCT250 17/08 A2997 RMK AO2 SLP119 OCNL LGTICCC DSNT NW CB DSNT NW T01720078
Observed Flight Rules
May-25 @ 04:56 UTC
(31 minutes ago)
VFR
Wind Visibility
300° at 17 knots 10 miles
Clouds
  • Few at 6,000' AGL
  • Scattered at 15,000' AGL
  • Scattered at 25,000' AGL
Temperature Dewpoint
17°C / 63°F 8°C / 46°F
Humidity Altimeter Pressure
56% 29.97" Hg 1011.9 hPa